Appleton, New York
Current Conditions -  °F | °C
As of 6:53 PM on Tuesday 25 Nov 2014 (Local Time) from KIAG Reporting Station
Overcast Overcast  
Wind Chill: 25°   Ceiling: 5000
Heat Index: 34°   Visibility: 10mi
Dew Point: 24°   Wind: 14mph
Humidity: 67%   Direction: 260°W
Pressure: 30.1"   Gusts: NA
Location:  43.33°N, 78.65°W
Report Text: KIAG 252353Z 26012KT 10SM OVC050 01/M04 A3010 RMK AO2 SLP205 60000 T00111044 10039 20011 51036
Loading
Personal Weather Stations






























Interactive Weather Map New forecast layout! Learn more

10-Day Weather Forecast

Advertisements
Track Severe Weather on mobile